sensor_id;sensor_type;location;lat;lon;timestamp;pressure;altitude;pressure_sealevel;temperature;humidity
58690;BME280;44470;53.206;-6.106;2023-01-31T00:01:29;102297.00;;;18.79;51.57
58690;BME280;44470;53.206;-6.106;2023-01-31T00:03:59;102293.44;;;18.80;51.51
58690;BME280;44470;53.206;-6.106;2023-01-31T00:06:31;102292.56;;;18.81;51.50
58690;BME280;44470;53.206;-6.106;2023-01-31T00:08:58;102290.78;;;18.80;51.62
58690;BME280;44470;53.206;-6.106;2023-01-31T00:11:25;102289.88;;;18.79;51.36
58690;BME280;44470;53.206;-6.106;2023-01-31T00:13:52;102283.66;;;18.79;51.49
58690;BME280;44470;53.206;-6.106;2023-01-31T00:16:18;102282.75;;;18.77;51.67
58690;BME280;44470;53.206;-6.106;2023-01-31T00:18:44;102270.28;;;18.77;51.36
58690;BME280;44470;53.206;-6.106;2023-01-31T00:21:16;102281.88;;;18.79;51.50
58690;BME280;44470;53.206;-6.106;2023-01-31T00:23:44;102269.44;;;18.81;51.46
58690;BME280;44470;53.206;-6.106;2023-01-31T00:26:15;102271.19;;;18.78;51.59
58690;BME280;44470;53.206;-6.106;2023-01-31T00:28:42;102262.31;;;18.80;51.55
58690;BME280;44470;53.206;-6.106;2023-01-31T00:31:10;102270.28;;;18.77;51.62
58690;BME280;44470;53.206;-6.106;2023-01-31T00:33:38;102259.63;;;18.76;51.60
58690;BME280;44470;53.206;-6.106;2023-01-31T00:36:05;102256.97;;;18.76;51.74
58690;BME280;44470;53.206;-6.106;2023-01-31T00:38:32;102247.16;;;18.76;51.44
58690;BME280;44470;53.206;-6.106;2023-01-31T00:40:57;102248.94;;;18.74;51.59
58690;BME280;44470;53.206;-6.106;2023-01-31T00:43:23;102233.84;;;18.74;51.54
58690;BME280;44470;53.206;-6.106;2023-01-31T00:45:48;102234.75;;;18.77;51.46
58690;BME280;44470;53.206;-6.106;2023-01-31T00:48:14;102235.63;;;18.76;51.59
58690;BME280;44470;53.206;-6.106;2023-01-31T00:50:40;102230.22;;;18.71;51.67
58690;BME280;44470;53.206;-6.106;2023-01-31T00:53:05;102240.06;;;18.77;51.43
58690;BME280;44470;53.206;-6.106;2023-01-31T00:55:31;102235.56;;;18.71;51.71
58690;BME280;44470;53.206;-6.106;2023-01-31T00:57:57;102229.41;;;18.77;51.54
58690;BME280;44470;53.206;-6.106;2023-01-31T01:00:22;102247.16;;;18.74;51.37
58690;BME280;44470;53.206;-6.106;2023-01-31T01:02:48;102232.97;;;18.76;51.52
58690;BME280;44470;53.206;-6.106;2023-01-31T01:05:13;102237.34;;;18.70;51.55
58690;BME280;44470;53.206;-6.106;2023-01-31T01:07:39;102255.16;;;18.74;51.67
58690;BME280;44470;53.206;-6.106;2023-01-31T01:10:05;102253.38;;;18.73;51.57
58690;BME280;44470;53.206;-6.106;2023-01-31T01:12:31;102255.16;;;18.74;51.53
58690;BME280;44470;53.206;-6.106;2023-01-31T01:14:57;102245.38;;;18.73;51.74
58690;BME280;44470;53.206;-6.106;2023-01-31T01:17:22;102236.47;;;18.71;51.67
58690;BME280;44470;53.206;-6.106;2023-01-31T01:19:48;102248.94;;;18.72;51.29
58690;BME280;44470;53.206;-6.106;2023-01-31T01:22:14;102228.47;;;18.71;51.40
58690;BME280;44470;53.206;-6.106;2023-01-31T01:24:44;102230.22;;;18.69;51.37
58690;BME280;44470;53.206;-6.106;2023-01-31T01:27:11;102231.13;;;18.70;51.53
58690;BME280;44470;53.206;-6.106;2023-01-31T01:29:37;102223.13;;;18.71;51.54
58690;BME280;44470;53.206;-6.106;2023-01-31T01:32:04;102223.13;;;18.73;51.31
58690;BME280;44470;53.206;-6.106;2023-01-31T01:34:30;102237.34;;;18.70;51.54
58690;BME280;44470;53.206;-6.106;2023-01-31T01:36:56;102224.00;;;18.69;51.62
58690;BME280;44470;53.206;-6.106;2023-01-31T01:39:21;102226.69;;;18.70;51.47
58690;BME280;44470;53.206;-6.106;2023-01-31T01:41:47;102218.69;;;18.70;51.41
58690;BME280;44470;53.206;-6.106;2023-01-31T01:47:43;102228.44;;;18.70;51.56
58690;BME280;44470;53.206;-6.106;2023-01-31T01:52:35;102216.03;;;18.70;51.51
58690;BME280;44470;53.206;-6.106;2023-01-31T01:55:12;102197.34;;;18.72;51.70
58690;BME280;44470;53.206;-6.106;2023-01-31T01:57:40;102205.34;;;18.70;51.69
58690;BME280;44470;53.206;-6.106;2023-01-31T02:00:13;102183.09;;;18.70;51.85
58690;BME280;44470;53.206;-6.106;2023-01-31T02:02:43;102181.34;;;18.70;51.81
58690;BME280;44470;53.206;-6.106;2023-01-31T02:05:13;102170.69;;;18.70;51.77
58690;BME280;44470;53.206;-6.106;2023-01-31T02:07:41;102183.13;;;18.71;51.54
58690;BME280;44470;53.206;-6.106;2023-01-31T02:10:12;102187.56;;;18.69;51.58
58690;BME280;44470;53.206;-6.106;2023-01-31T02:12:40;102192.91;;;18.71;51.54
58690;BME280;44470;53.206;-6.106;2023-01-31T02:15:07;102192.00;;;18.72;51.71
58690;BME280;44470;53.206;-6.106;2023-01-31T02:17:32;102189.34;;;18.70;51.67
58690;BME280;44470;53.206;-6.106;2023-01-31T02:20:18;102184.91;;;18.69;51.66
58690;BME280;44470;53.206;-6.106;2023-01-31T02:28:45;102184.91;;;18.69;51.71
58690;BME280;44470;53.206;-6.106;2023-01-31T02:34:33;102187.59;;;18.72;51.79
58690;BME280;44470;53.206;-6.106;2023-01-31T02:48:40;102180.47;;;18.71;51.71
58690;BME280;44470;53.206;-6.106;2023-01-31T02:51:24;102175.13;;;18.71;51.95
58690;BME280;44470;53.206;-6.106;2023-01-31T02:54:20;102180.47;;;18.71;51.77
58690;BME280;44470;53.206;-6.106;2023-01-31T02:56:49;102166.22;;;18.69;51.88
58690;BME280;44470;53.206;-6.106;2023-01-31T02:59:19;102158.22;;;18.69;51.96
58690;BME280;44470;53.206;-6.106;2023-01-31T03:01:57;102149.31;;;18.69;51.97
58690;BME280;44470;53.206;-6.106;2023-01-31T03:04:29;102150.25;;;18.74;51.94
58690;BME280;44470;53.206;-6.106;2023-01-31T03:15:33;102128.00;;;18.72;51.81
58690;BME280;44470;53.206;-6.106;2023-01-31T03:18:24;102126.22;;;18.69;51.97
58690;BME280;44470;53.206;-6.106;2023-01-31T03:21:02;102128.00;;;18.70;51.96
58690;BME280;44470;53.206;-6.106;2023-01-31T03:23:30;102120.00;;;18.70;52.04
58690;BME280;44470;53.206;-6.106;2023-01-31T03:25:59;102123.56;;;18.69;52.15
58690;BME280;44470;53.206;-6.106;2023-01-31T03:28:29;102117.34;;;18.70;51.86
58690;BME280;44470;53.206;-6.106;2023-01-31T03:33:46;102100.47;;;18.71;51.91
58690;BME280;44470;53.206;-6.106;2023-01-31T03:39:08;102104.88;;;18.71;51.83
58690;BME280;44470;53.206;-6.106;2023-01-31T03:41:47;102090.66;;;18.70;51.85
58690;BME280;44470;53.206;-6.106;2023-01-31T03:47:02;102096.00;;;18.70;51.84
58690;BME280;44470;53.206;-6.106;2023-01-31T03:49:30;102079.09;;;18.68;51.94
58690;BME280;44470;53.206;-6.106;2023-01-31T03:52:04;102085.34;;;18.70;51.95
58690;BME280;44470;53.206;-6.106;2023-01-31T03:54:36;102088.88;;;18.69;51.86
58690;BME280;44470;53.206;-6.106;2023-01-31T03:57:25;102089.75;;;18.67;52.17
58690;BME280;44470;53.206;-6.106;2023-01-31T03:59:55;102085.31;;;18.69;51.96
58690;BME280;44470;53.206;-6.106;2023-01-31T04:02:28;102065.78;;;18.68;51.87
58690;BME280;44470;53.206;-6.106;2023-01-31T04:05:05;102070.22;;;18.69;52.16
58690;BME280;44470;53.206;-6.106;2023-01-31T04:07:33;102074.66;;;18.69;52.20
58690;BME280;44470;53.206;-6.106;2023-01-31T04:10:00;102061.31;;;18.69;52.07
58690;BME280;44470;53.206;-6.106;2023-01-31T04:12:26;102064.88;;;18.69;52.05
58690;BME280;44470;53.206;-6.106;2023-01-31T04:14:51;102075.56;;;18.69;52.09
58690;BME280;44470;53.206;-6.106;2023-01-31T04:17:17;102070.19;;;18.68;51.90
58690;BME280;44470;53.206;-6.106;2023-01-31T04:19:42;102077.28;;;18.66;52.11
58690;BME280;44470;53.206;-6.106;2023-01-31T04:22:08;102062.19;;;18.66;52.05
58690;BME280;44470;53.206;-6.106;2023-01-31T04:24:33;102060.44;;;18.68;52.15
58690;BME280;44470;53.206;-6.106;2023-01-31T04:26:59;102045.31;;;18.67;52.07
58690;BME280;44470;53.206;-6.106;2023-01-31T04:29:24;102060.41;;;18.67;52.18
58690;BME280;44470;53.206;-6.106;2023-01-31T04:31:50;102059.53;;;18.68;51.97
58690;BME280;44470;53.206;-6.106;2023-01-31T04:34:15;102055.97;;;18.67;52.11
58690;BME280;44470;53.206;-6.106;2023-01-31T04:36:41;102049.75;;;18.67;51.90
58690;BME280;44470;53.206;-6.106;2023-01-31T04:39:09;102055.97;;;18.66;52.05
58690;BME280;44470;53.206;-6.106;2023-01-31T04:41:34;102051.53;;;18.66;52.10
58690;BME280;44470;53.206;-6.106;2023-01-31T04:44:00;102067.53;;;18.68;52.08
58690;BME280;44470;53.206;-6.106;2023-01-31T04:46:25;102074.66;;;18.67;52.15
58690;BME280;44470;53.206;-6.106;2023-01-31T04:48:51;102099.53;;;18.68;52.12
58690;BME280;44470;53.206;-6.106;2023-01-31T04:51:16;102079.09;;;18.65;52.25
58690;BME280;44470;53.206;-6.106;2023-01-31T04:53:42;102089.75;;;18.67;52.21
58690;BME280;44470;53.206;-6.106;2023-01-31T04:56:09;102079.06;;;18.67;52.20
58690;BME280;44470;53.206;-6.106;2023-01-31T04:58:35;102082.66;;;18.67;52.33
58690;BME280;44470;53.206;-6.106;2023-01-31T05:01:00;102083.50;;;18.65;52.22
58690;BME280;44470;53.206;-6.106;2023-01-31T05:03:26;102090.63;;;18.66;52.10
58690;BME280;44470;53.206;-6.106;2023-01-31T05:05:51;102082.66;;;18.67;51.99
58690;BME280;44470;53.206;-6.106;2023-01-31T05:08:17;102086.19;;;18.66;52.11
58690;BME280;44470;53.206;-6.106;2023-01-31T05:10:42;102080.88;;;18.66;52.02
58690;BME280;44470;53.206;-6.106;2023-01-31T05:13:09;102079.09;;;18.65;52.25
58690;BME280;44470;53.206;-6.106;2023-01-31T05:15:35;102087.97;;;18.64;52.09
58690;BME280;44470;53.206;-6.106;2023-01-31T05:18:00;102103.97;;;18.64;52.29
58690;BME280;44470;53.206;-6.106;2023-01-31T05:20:31;102079.94;;;18.61;52.06
58690;BME280;44470;53.206;-6.106;2023-01-31T05:22:58;102077.28;;;18.63;51.99
58690;BME280;44470;53.206;-6.106;2023-01-31T05:25:24;102080.84;;;18.63;52.09
58690;BME280;44470;53.206;-6.106;2023-01-31T05:27:51;102081.72;;;18.62;52.13
58690;BME280;44470;53.206;-6.106;2023-01-31T05:30:17;102077.28;;;18.61;51.81
58690;BME280;44470;53.206;-6.106;2023-01-31T05:32:43;102077.31;;;18.64;51.83
58690;BME280;44470;53.206;-6.106;2023-01-31T05:35:11;102073.72;;;18.62;52.09
58690;BME280;44470;53.206;-6.106;2023-01-31T05:37:36;102074.63;;;18.61;51.96
58690;BME280;44470;53.206;-6.106;2023-01-31T05:40:02;102077.28;;;18.63;52.10
58690;BME280;44470;53.206;-6.106;2023-01-31T05:42:27;102079.94;;;18.63;51.90
58690;BME280;44470;53.206;-6.106;2023-01-31T05:44:53;102068.41;;;18.62;51.98
58690;BME280;44470;53.206;-6.106;2023-01-31T05:47:18;102073.72;;;18.62;52.00
58690;BME280;44470;53.206;-6.106;2023-01-31T05:49:44;102077.28;;;18.61;51.88
58690;BME280;44470;53.206;-6.106;2023-01-31T05:52:09;102075.53;;;18.63;51.82
58690;BME280;44470;53.206;-6.106;2023-01-31T05:54:35;102082.63;;;18.61;52.06
58690;BME280;44470;53.206;-6.106;2023-01-31T05:57:00;102085.28;;;18.61;51.70
58690;BME280;44470;53.206;-6.106;2023-01-31T05:59:26;102090.59;;;18.63;51.70
58690;BME280;44470;53.206;-6.106;2023-01-31T06:01:54;102081.72;;;18.61;51.69
58690;BME280;44470;53.206;-6.106;2023-01-31T06:04:20;102085.28;;;18.61;51.71
58690;BME280;44470;53.206;-6.106;2023-01-31T06:06:45;102081.72;;;18.61;51.85
58690;BME280;44470;53.206;-6.106;2023-01-31T06:09:11;102086.16;;;18.60;51.82
58690;BME280;44470;53.206;-6.106;2023-01-31T06:11:42;102090.59;;;18.59;51.77
58690;BME280;44470;53.206;-6.106;2023-01-31T06:14:09;102095.03;;;18.59;51.63
58690;BME280;44470;53.206;-6.106;2023-01-31T06:16:34;102099.50;;;18.60;51.71
58690;BME280;44470;53.206;-6.106;2023-01-31T06:19:00;102098.63;;;18.61;51.56
58690;BME280;44470;53.206;-6.106;2023-01-31T06:21:26;102090.63;;;18.61;51.65
58690;BME280;44470;53.206;-6.106;2023-01-31T06:23:52;102111.91;;;18.59;51.87
58690;BME280;44470;53.206;-6.106;2023-01-31T06:26:18;102110.16;;;18.62;51.72
58690;BME280;44470;53.206;-6.106;2023-01-31T06:28:43;102116.38;;;18.59;51.60
58690;BME280;44470;53.206;-6.106;2023-01-31T06:31:10;102128.81;;;18.60;51.88
58690;BME280;44470;53.206;-6.106;2023-01-31T06:33:35;102134.16;;;18.60;51.72
58690;BME280;44470;53.206;-6.106;2023-01-31T06:36:02;102125.28;;;18.61;51.48
58690;BME280;44470;53.206;-6.106;2023-01-31T06:38:28;102119.03;;;18.59;51.59
58690;BME280;44470;53.206;-6.106;2023-01-31T06:40:53;102131.47;;;18.58;51.83
58690;BME280;44470;53.206;-6.106;2023-01-31T06:43:19;102136.81;;;18.57;51.55
58690;BME280;44470;53.206;-6.106;2023-01-31T06:45:44;102131.47;;;18.58;51.64
58690;BME280;44470;53.206;-6.106;2023-01-31T06:48:10;102148.38;;;18.59;52.01
58690;BME280;44470;53.206;-6.106;2023-01-31T06:50:36;102136.81;;;18.60;51.40
58690;BME280;44470;53.206;-6.106;2023-01-31T06:53:02;102114.59;;;18.58;51.72
58690;BME280;44470;53.206;-6.106;2023-01-31T06:55:27;102125.25;;;18.58;51.71
58690;BME280;44470;53.206;-6.106;2023-01-31T06:57:53;102127.94;;;18.58;51.73
58690;BME280;44470;53.206;-6.106;2023-01-31T07:00:20;102125.22;;;18.56;51.80
58690;BME280;44470;53.206;-6.106;2023-01-31T07:02:46;102120.78;;;18.55;51.49
58690;BME280;44470;53.206;-6.106;2023-01-31T07:05:12;102123.47;;;18.57;51.83
58690;BME280;44470;53.206;-6.106;2023-01-31T07:07:38;102128.81;;;18.57;51.70
58690;BME280;44470;53.206;-6.106;2023-01-31T07:10:04;102132.34;;;18.56;51.82
58690;BME280;44470;53.206;-6.106;2023-01-31T07:12:29;102121.69;;;18.56;51.74
58690;BME280;44470;53.206;-6.106;2023-01-31T07:14:55;102116.34;;;18.56;51.70
58690;BME280;44470;53.206;-6.106;2023-01-31T07:17:20;102111.00;;;18.54;51.55
58690;BME280;44470;53.206;-6.106;2023-01-31T07:19:46;102109.19;;;18.55;51.59
58690;BME280;44470;53.206;-6.106;2023-01-31T07:22:12;102113.69;;;18.56;51.48
58690;BME280;44470;53.206;-6.106;2023-01-31T07:24:37;102115.41;;;18.54;51.78
58690;BME280;44470;53.206;-6.106;2023-01-31T07:27:03;102122.53;;;18.55;51.60
58690;BME280;44470;53.206;-6.106;2023-01-31T07:29:28;102119.88;;;18.55;51.63
58690;BME280;44470;53.206;-6.106;2023-01-31T07:31:54;102122.50;;;18.52;51.64
58690;BME280;44470;53.206;-6.106;2023-01-31T07:34:19;102123.41;;;18.54;51.56
58690;BME280;44470;53.206;-6.106;2023-01-31T07:36:50;102141.19;;;18.55;51.45
58690;BME280;44470;53.206;-6.106;2023-01-31T07:39:16;102126.97;;;18.53;51.56
58690;BME280;44470;53.206;-6.106;2023-01-31T07:41:42;102154.53;;;18.53;51.52
58690;BME280;44470;53.206;-6.106;2023-01-31T07:44:08;102155.41;;;18.52;51.78
58690;BME280;44470;53.206;-6.106;2023-01-31T07:46:38;102148.31;;;18.51;51.49
58690;BME280;44470;53.206;-6.106;2023-01-31T07:49:03;102150.97;;;18.51;51.51
58690;BME280;44470;53.206;-6.106;2023-01-31T07:51:29;102151.84;;;18.52;51.39
58690;BME280;44470;53.206;-6.106;2023-01-31T07:53:55;102159.84;;;18.50;51.54
58690;BME280;44470;53.206;-6.106;2023-01-31T07:56:21;102168.72;;;18.51;51.24
58690;BME280;44470;53.206;-6.106;2023-01-31T07:58:48;102163.38;;;18.51;51.39
58690;BME280;44470;53.206;-6.106;2023-01-31T08:01:16;102161.63;;;18.51;51.22
58690;BME280;44470;53.206;-6.106;2023-01-31T08:04:01;102158.97;;;18.51;51.27
58690;BME280;44470;53.206;-6.106;2023-01-31T08:06:28;102174.94;;;18.50;51.27
58690;BME280;44470;53.206;-6.106;2023-01-31T08:08:54;102158.06;;;18.49;51.52
58690;BME280;44470;53.206;-6.106;2023-01-31T08:11:20;102164.25;;;18.50;51.70
58690;BME280;44470;53.206;-6.106;2023-01-31T08:13:46;102169.63;;;18.51;51.12
58690;BME280;44470;53.206;-6.106;2023-01-31T08:16:11;102163.38;;;18.51;51.41
58690;BME280;44470;53.206;-6.106;2023-01-31T08:18:37;102172.25;;;18.50;51.04
58690;BME280;44470;53.206;-6.106;2023-01-31T08:21:04;102176.72;;;18.51;51.05
58690;BME280;44470;53.206;-6.106;2023-01-31T08:23:29;102193.63;;;18.51;51.39
58690;BME280;44470;53.206;-6.106;2023-01-31T08:26:02;102190.97;;;18.51;51.19
58690;BME280;44470;53.206;-6.106;2023-01-31T08:28:29;102190.03;;;18.51;51.40
58690;BME280;44470;53.206;-6.106;2023-01-31T08:30:55;102181.16;;;18.50;51.19
58690;BME280;44470;53.206;-6.106;2023-01-31T08:33:21;102176.72;;;18.51;51.49
58690;BME280;44470;53.206;-6.106;2023-01-31T08:35:47;102189.13;;;18.49;51.36
58690;BME280;44470;53.206;-6.106;2023-01-31T08:38:13;102198.94;;;18.48;51.54
58690;BME280;44470;53.206;-6.106;2023-01-31T08:40:39;102193.56;;;18.47;51.59
58690;BME280;44470;53.206;-6.106;2023-01-31T08:43:04;102180.25;;;18.50;51.38
58690;BME280;44470;53.206;-6.106;2023-01-31T08:45:30;102186.47;;;18.49;51.29
58690;BME280;44470;53.206;-6.106;2023-01-31T08:47:59;102194.47;;;18.49;51.29
58690;BME280;44470;53.206;-6.106;2023-01-31T08:50:27;102193.59;;;18.48;51.25
58690;BME280;44470;53.206;-6.106;2023-01-31T08:52:53;102191.84;;;18.50;51.22
58690;BME280;44470;53.206;-6.106;2023-01-31T08:55:20;102171.34;;;18.48;51.50
58690;BME280;44470;53.206;-6.106;2023-01-31T08:57:46;102190.94;;;18.48;51.52
58690;BME280;44470;53.206;-6.106;2023-01-31T09:00:13;102192.69;;;18.48;51.22
58690;BME280;44470;53.206;-6.106;2023-01-31T09:02:38;102191.78;;;18.45;51.29
58690;BME280;44470;53.206;-6.106;2023-01-31T09:05:04;102183.78;;;18.45;51.54
58690;BME280;44470;53.206;-6.106;2023-01-31T09:07:33;102204.22;;;18.47;51.31
58690;BME280;44470;53.206;-6.106;2023-01-31T09:09:58;102204.25;;;18.48;51.58
58690;BME280;44470;53.206;-6.106;2023-01-31T09:12:24;102196.22;;;18.47;51.42
58690;BME280;44470;53.206;-6.106;2023-01-31T09:14:49;102217.56;;;18.47;51.38
58690;BME280;44470;53.206;-6.106;2023-01-31T09:17:16;102209.56;;;18.47;51.46
58690;BME280;44470;53.206;-6.106;2023-01-31T09:19:41;102224.69;;;18.48;51.27
58690;BME280;44470;53.206;-6.106;2023-01-31T09:22:07;102212.22;;;18.47;51.31
58690;BME280;44470;53.206;-6.106;2023-01-31T09:24:32;102232.66;;;18.44;51.62
58690;BME280;44470;53.206;-6.106;2023-01-31T09:26:58;102222.88;;;18.47;51.33
58690;BME280;44470;53.206;-6.106;2023-01-31T09:29:23;102216.69;;;18.46;51.46
58690;BME280;44470;53.206;-6.106;2023-01-31T09:31:50;102229.13;;;18.49;51.42
58690;BME280;44470;53.206;-6.106;2023-01-31T09:34:16;102229.13;;;18.47;51.20
58690;BME280;44470;53.206;-6.106;2023-01-31T09:36:43;102236.22;;;18.47;51.44
58690;BME280;44470;53.206;-6.106;2023-01-31T09:39:11;102245.13;;;18.47;51.18
58690;BME280;44470;53.206;-6.106;2023-01-31T09:41:43;102236.22;;;18.45;51.30
58690;BME280;44470;53.206;-6.106;2023-01-31T09:46:58;102246.00;;;18.46;51.40
58690;BME280;44470;53.206;-6.106;2023-01-31T09:49:28;102237.97;;;18.43;51.50
58690;BME280;44470;53.206;-6.106;2023-01-31T09:52:01;102237.09;;;18.45;51.41
58690;BME280;44470;53.206;-6.106;2023-01-31T09:54:31;102239.75;;;18.44;51.46
58690;BME280;44470;53.206;-6.106;2023-01-31T10:00:05;102273.53;;;18.45;51.31
58690;BME280;44470;53.206;-6.106;2023-01-31T10:03:34;102267.34;;;18.46;51.51
58690;BME280;44470;53.206;-6.106;2023-01-31T10:10:58;102246.88;;;18.45;51.38
58690;BME280;44470;53.206;-6.106;2023-01-31T10:13:46;102251.31;;;18.43;51.63
58690;BME280;44470;53.206;-6.106;2023-01-31T10:16:22;102237.06;;;18.42;51.62
58690;BME280;44470;53.206;-6.106;2023-01-31T10:18:58;102238.84;;;18.43;51.47
58690;BME280;44470;53.206;-6.106;2023-01-31T10:21:35;102249.53;;;18.42;51.34
58690;BME280;44470;53.206;-6.106;2023-01-31T10:24:27;102241.50;;;18.40;51.57
58690;BME280;44470;53.206;-6.106;2023-01-31T10:26:59;102250.44;;;18.44;51.39
58690;BME280;44470;53.206;-6.106;2023-01-31T10:29:32;102257.53;;;18.43;51.34
58690;BME280;44470;53.206;-6.106;2023-01-31T10:32:07;102270.84;;;18.42;51.43
58690;BME280;44470;53.206;-6.106;2023-01-31T10:37:08;102278.84;;;18.42;51.12
58690;BME280;44470;53.206;-6.106;2023-01-31T10:39:41;102293.09;;;18.44;51.16
58690;BME280;44470;53.206;-6.106;2023-01-31T10:42:21;102297.50;;;18.43;51.50
58690;BME280;44470;53.206;-6.106;2023-01-31T10:47:20;102308.13;;;18.40;51.51
58690;BME280;44470;53.206;-6.106;2023-01-31T10:49:48;102341.94;;;18.44;51.03
58690;BME280;44470;53.206;-6.106;2023-01-31T10:54:58;102328.63;;;18.43;51.60
58690;BME280;44470;53.206;-6.106;2023-01-31T10:57:27;102328.59;;;18.41;51.31
58690;BME280;44470;53.206;-6.106;2023-01-31T10:59:53;102358.81;;;18.43;51.41
58690;BME280;44470;53.206;-6.106;2023-01-31T11:02:22;102361.50;;;18.43;51.28
58690;BME280;44470;53.206;-6.106;2023-01-31T11:04:52;102358.81;;;18.43;51.24
58690;BME280;44470;53.206;-6.106;2023-01-31T11:07:30;102378.41;;;18.44;51.21
58690;BME280;44470;53.206;-6.106;2023-01-31T11:09:56;102371.28;;;18.43;51.33
58690;BME280;44470;53.206;-6.106;2023-01-31T11:12:51;102391.69;;;18.42;51.33
58690;BME280;44470;53.206;-6.106;2023-01-31T11:15:18;102391.66;;;18.39;51.36
58690;BME280;44470;53.206;-6.106;2023-01-31T11:17:45;102376.56;;;18.41;51.32
58690;BME280;44470;53.206;-6.106;2023-01-31T11:20:30;102405.03;;;18.41;51.33
58690;BME280;44470;53.206;-6.106;2023-01-31T11:22:59;102403.22;;;18.40;51.42
58690;BME280;44470;53.206;-6.106;2023-01-31T11:25:27;102406.81;;;18.42;51.18
58690;BME280;44470;53.206;-6.106;2023-01-31T11:27:56;102412.13;;;18.42;51.49
58690;BME280;44470;53.206;-6.106;2023-01-31T11:30:30;102413.91;;;18.41;51.20
58690;BME280;44470;53.206;-6.106;2023-01-31T11:32:56;102404.09;;;18.40;51.15
58690;BME280;44470;53.206;-6.106;2023-01-31T11:35:25;102407.66;;;18.39;51.07
58690;BME280;44470;53.206;-6.106;2023-01-31T11:40:41;102396.97;;;18.39;51.22
58690;BME280;44470;53.206;-6.106;2023-01-31T11:43:23;102412.97;;;18.39;51.18
58690;BME280;44470;53.206;-6.106;2023-01-31T11:45:56;102415.66;;;18.39;50.93
58690;BME280;44470;53.206;-6.106;2023-01-31T11:51:02;102436.97;;;18.38;51.49
58690;BME280;44470;53.206;-6.106;2023-01-31T11:53:44;102438.75;;;18.40;51.24
58690;BME280;44470;53.206;-6.106;2023-01-31T11:56:20;102442.28;;;18.38;51.06
58690;BME280;44470;53.206;-6.106;2023-01-31T11:58:49;102438.72;;;18.37;51.35
58690;BME280;44470;53.206;-6.106;2023-01-31T12:01:18;102444.06;;;18.37;51.17
58690;BME280;44470;53.206;-6.106;2023-01-31T12:03:59;102436.97;;;18.38;51.20
58690;BME280;44470;53.206;-6.106;2023-01-31T12:08:56;102460.03;;;18.37;51.13
58690;BME280;44470;53.206;-6.106;2023-01-31T12:11:30;102446.72;;;18.37;51.13
58690;BME280;44470;53.206;-6.106;2023-01-31T12:16:32;102452.06;;;18.37;51.33
58690;BME280;44470;53.206;-6.106;2023-01-31T12:27:17;102454.72;;;18.36;51.06
58690;BME280;44470;53.206;-6.106;2023-01-31T12:57:27;102441.34;;;18.34;50.99
58690;BME280;44470;53.206;-6.106;2023-01-31T13:00:22;102436.88;;;18.33;50.72
58690;BME280;44470;53.206;-6.106;2023-01-31T13:05:37;102445.56;;;18.18;49.26
58690;BME280;44470;53.206;-6.106;2023-01-31T13:08:20;102438.47;;;18.19;48.87
58690;BME280;44470;53.206;-6.106;2023-01-31T13:13:28;102431.44;;;18.24;50.04
58690;BME280;44470;53.206;-6.106;2023-01-31T13:15:59;102427.03;;;18.26;49.89
58690;BME280;44470;53.206;-6.106;2023-01-31T13:18:26;102437.69;;;18.26;50.01
58690;BME280;44470;53.206;-6.106;2023-01-31T13:20:59;102441.22;;;18.26;49.95
58690;BME280;44470;53.206;-6.106;2023-01-31T13:23:37;102439.47;;;18.28;49.82
58690;BME280;44470;53.206;-6.106;2023-01-31T13:26:13;102444.84;;;18.30;50.06
58690;BME280;44470;53.206;-6.106;2023-01-31T13:28:50;102439.50;;;18.30;50.05
58690;BME280;44470;53.206;-6.106;2023-01-31T13:31:48;102425.28;;;18.28;49.79
58690;BME280;44470;53.206;-6.106;2023-01-31T13:34:23;102433.31;;;18.31;50.06
58690;BME280;44470;53.206;-6.106;2023-01-31T13:36:53;102428.84;;;18.30;49.90
58690;BME280;44470;53.206;-6.106;2023-01-31T13:39:39;102418.19;;;18.30;49.83
58690;BME280;44470;53.206;-6.106;2023-01-31T13:42:06;102427.09;;;18.30;49.64
58690;BME280;44470;53.206;-6.106;2023-01-31T13:44:34;102435.09;;;18.32;49.90
58690;BME280;44470;53.206;-6.106;2023-01-31T13:47:23;102434.22;;;18.33;50.06
58690;BME280;44470;53.206;-6.106;2023-01-31T13:49:54;102428.91;;;18.33;50.14
58690;BME280;44470;53.206;-6.106;2023-01-31T13:52:32;102416.44;;;18.32;49.85
58690;BME280;44470;53.206;-6.106;2023-01-31T13:55:05;102422.66;;;18.31;50.05
58690;BME280;44470;53.206;-6.106;2023-01-31T13:57:38;102417.34;;;18.33;50.14
58690;BME280;44470;53.206;-6.106;2023-01-31T14:03:04;102395.13;;;18.32;49.94
58690;BME280;44470;53.206;-6.106;2023-01-31T14:21:55;102419.16;;;18.35;50.16
58690;BME280;44470;53.206;-6.106;2023-01-31T14:32:33;102434.25;;;18.36;49.97
58690;BME280;44470;53.206;-6.106;2023-01-31T14:43:23;102428.09;;;18.40;50.05
58690;BME280;44470;53.206;-6.106;2023-01-31T14:55:20;102424.50;;;18.38;50.14
58690;BME280;44470;53.206;-6.106;2023-01-31T14:57:21;102438.75;;;18.39;50.16
58690;BME280;44470;53.206;-6.106;2023-01-31T15:05:06;102438.81;;;18.42;50.19
58690;BME280;44470;53.206;-6.106;2023-01-31T15:07:33;102427.22;;;18.41;49.97
58690;BME280;44470;53.206;-6.106;2023-01-31T15:09:59;102439.69;;;18.42;50.12
58690;BME280;44470;53.206;-6.106;2023-01-31T15:12:56;102434.38;;;18.44;50.07
58690;BME280;44470;53.206;-6.106;2023-01-31T15:15:32;102423.69;;;18.42;49.97
58690;BME280;44470;53.206;-6.106;2023-01-31T15:18:03;102416.56;;;18.41;50.15
58690;BME280;44470;53.206;-6.106;2023-01-31T15:20:33;102430.81;;;18.43;50.11
58690;BME280;44470;53.206;-6.106;2023-01-31T15:23:04;102425.47;;;18.43;50.22
58690;BME280;44470;53.206;-6.106;2023-01-31T15:25:42;102416.56;;;18.41;50.23
58690;BME280;44470;53.206;-6.106;2023-01-31T15:28:14;102415.72;;;18.44;50.18
58690;BME280;44470;53.206;-6.106;2023-01-31T15:30:41;102418.34;;;18.42;50.05
58690;BME280;44470;53.206;-6.106;2023-01-31T15:33:42;102408.59;;;18.43;50.01
58690;BME280;44470;53.206;-6.106;2023-01-31T15:36:32;102412.13;;;18.42;50.22